sensor_id;sensor_type;location;lat;lon;timestamp;P1;durP1;ratioP1;P2;durP2;ratioP2
48911;SDS011;34722;52.108;5.044;2023-03-02T00:00:05;78.60;;;31.25;;
48911;SDS011;34722;52.108;5.044;2023-03-02T00:02:39;88.72;;;35.38;;
48911;SDS011;34722;52.108;5.044;2023-03-02T00:05:11;92.93;;;34.65;;
48911;SDS011;34722;52.108;5.044;2023-03-02T00:07:39;91.47;;;36.00;;
48911;SDS011;34722;52.108;5.044;2023-03-02T00:10:05;88.00;;;34.00;;
48911;SDS011;34722;52.108;5.044;2023-03-02T00:12:31;88.75;;;35.53;;
48911;SDS011;34722;52.108;5.044;2023-03-02T00:14:57;89.47;;;33.95;;
48911;SDS011;34722;52.108;5.044;2023-03-02T00:17:23;102.50;;;37.35;;
48911;SDS011;34722;52.108;5.044;2023-03-02T00:19:53;99.03;;;38.55;;
48911;SDS011;34722;52.108;5.044;2023-03-02T00:22:19;97.65;;;37.03;;
48911;SDS011;34722;52.108;5.044;2023-03-02T00:24:45;92.70;;;36.33;;
48911;SDS011;34722;52.108;5.044;2023-03-02T00:27:10;103.00;;;38.08;;
48911;SDS011;34722;52.108;5.044;2023-03-02T00:29:36;107.35;;;39.58;;
48911;SDS011;34722;52.108;5.044;2023-03-02T00:32:02;106.15;;;39.00;;
48911;SDS011;34722;52.108;5.044;2023-03-02T00:34:28;106.40;;;39.03;;
48911;SDS011;34722;52.108;5.044;2023-03-02T00:36:57;116.20;;;38.53;;
48911;SDS011;34722;52.108;5.044;2023-03-02T00:39:23;115.05;;;38.95;;
48911;SDS011;34722;52.108;5.044;2023-03-02T00:41:48;122.18;;;42.17;;
48911;SDS011;34722;52.108;5.044;2023-03-02T00:44:14;125.95;;;43.67;;
48911;SDS011;34722;52.108;5.044;2023-03-02T00:46:43;115.80;;;39.83;;
48911;SDS011;34722;52.108;5.044;2023-03-02T00:49:09;159.30;;;44.80;;
48911;SDS011;34722;52.108;5.044;2023-03-02T00:51:35;119.70;;;40.08;;
48911;SDS011;34722;52.108;5.044;2023-03-02T00:54:01;119.65;;;40.10;;
48911;SDS011;34722;52.108;5.044;2023-03-02T00:56:27;116.82;;;41.17;;
48911;SDS011;34722;52.108;5.044;2023-03-02T00:58:53;114.30;;;38.72;;
48911;SDS011;34722;52.108;5.044;2023-03-02T01:01:19;117.97;;;42.30;;
48911;SDS011;34722;52.108;5.044;2023-03-02T01:03:45;125.25;;;41.00;;
48911;SDS011;34722;52.108;5.044;2023-03-02T01:06:17;110.05;;;39.05;;
48911;SDS011;34722;52.108;5.044;2023-03-02T01:08:44;129.98;;;39.97;;
48911;SDS011;34722;52.108;5.044;2023-03-02T01:11:19;125.20;;;40.45;;
48911;SDS011;34722;52.108;5.044;2023-03-02T01:13:45;120.43;;;39.63;;
48911;SDS011;34722;52.108;5.044;2023-03-02T01:16:11;123.85;;;42.05;;
48911;SDS011;34722;52.108;5.044;2023-03-02T01:18:37;122.85;;;41.38;;
48911;SDS011;34722;52.108;5.044;2023-03-02T01:21:05;127.65;;;39.88;;
48911;SDS011;34722;52.108;5.044;2023-03-02T01:23:38;122.97;;;41.38;;
48911;SDS011;34722;52.108;5.044;2023-03-02T01:26:04;126.80;;;39.33;;
48911;SDS011;34722;52.108;5.044;2023-03-02T01:28:30;128.45;;;40.15;;
48911;SDS011;34722;52.108;5.044;2023-03-02T01:30:55;117.57;;;37.97;;
48911;SDS011;34722;52.108;5.044;2023-03-02T01:33:21;124.38;;;40.20;;
48911;SDS011;34722;52.108;5.044;2023-03-02T01:35:46;118.40;;;38.20;;
48911;SDS011;34722;52.108;5.044;2023-03-02T01:38:12;119.53;;;40.67;;
48911;SDS011;34722;52.108;5.044;2023-03-02T01:40:38;123.10;;;38.67;;
48911;SDS011;34722;52.108;5.044;2023-03-02T01:43:08;143.52;;;41.25;;
48911;SDS011;34722;52.108;5.044;2023-03-02T01:45:52;123.15;;;39.28;;
48911;SDS011;34722;52.108;5.044;2023-03-02T01:48:34;129.73;;;40.80;;
48911;SDS011;34722;52.108;5.044;2023-03-02T01:51:22;130.20;;;39.80;;
48911;SDS011;34722;52.108;5.044;2023-03-02T01:53:51;133.02;;;42.35;;
48911;SDS011;34722;52.108;5.044;2023-03-02T01:56:22;139.43;;;42.47;;
48911;SDS011;34722;52.108;5.044;2023-03-02T01:58:55;138.13;;;40.45;;
48911;SDS011;34722;52.108;5.044;2023-03-02T02:01:29;130.80;;;39.35;;
48911;SDS011;34722;52.108;5.044;2023-03-02T02:03:57;128.15;;;41.45;;
48911;SDS011;34722;52.108;5.044;2023-03-02T02:06:24;141.55;;;42.30;;
48911;SDS011;34722;52.108;5.044;2023-03-02T02:08:55;89.23;;;28.20;;
48911;SDS011;34722;52.108;5.044;2023-03-02T02:11:22;129.48;;;40.33;;
48911;SDS011;34722;52.108;5.044;2023-03-02T02:13:49;145.07;;;42.35;;
48911;SDS011;34722;52.108;5.044;2023-03-02T02:16:21;130.90;;;41.13;;
48911;SDS011;34722;52.108;5.044;2023-03-02T02:18:46;127.90;;;38.53;;
48911;SDS011;34722;52.108;5.044;2023-03-02T02:21:12;127.85;;;38.75;;
48911;SDS011;34722;52.108;5.044;2023-03-02T02:23:42;123.90;;;38.15;;
48911;SDS011;34722;52.108;5.044;2023-03-02T02:26:47;127.38;;;39.47;;
48911;SDS011;34722;52.108;5.044;2023-03-02T02:31:42;131.70;;;39.13;;
48911;SDS011;34722;52.108;5.044;2023-03-02T02:34:26;128.02;;;39.38;;
48911;SDS011;34722;52.108;5.044;2023-03-02T02:36:58;124.43;;;38.83;;
48911;SDS011;34722;52.108;5.044;2023-03-02T02:39:30;119.50;;;36.78;;
48911;SDS011;34722;52.108;5.044;2023-03-02T02:42:00;120.53;;;37.25;;
48911;SDS011;34722;52.108;5.044;2023-03-02T02:44:28;123.88;;;39.13;;
48911;SDS011;34722;52.108;5.044;2023-03-02T02:46:55;121.53;;;39.22;;
48911;SDS011;34722;52.108;5.044;2023-03-02T02:49:31;129.63;;;38.85;;
48911;SDS011;34722;52.108;5.044;2023-03-02T02:52:04;118.53;;;39.15;;
48911;SDS011;34722;52.108;5.044;2023-03-02T02:54:30;117.32;;;37.95;;
48911;SDS011;34722;52.108;5.044;2023-03-02T02:56:58;130.27;;;39.13;;
48911;SDS011;34722;52.108;5.044;2023-03-02T02:59:44;117.38;;;38.38;;
48911;SDS011;34722;52.108;5.044;2023-03-02T03:02:19;112.07;;;36.75;;
48911;SDS011;34722;52.108;5.044;2023-03-02T03:04:47;131.85;;;38.90;;
48911;SDS011;34722;52.108;5.044;2023-03-02T03:07:23;121.20;;;37.70;;
48911;SDS011;34722;52.108;5.044;2023-03-02T03:12:45;116.18;;;34.88;;
48911;SDS011;34722;52.108;5.044;2023-03-02T03:15:11;126.85;;;37.03;;
48911;SDS011;34722;52.108;5.044;2023-03-02T03:17:38;112.10;;;35.53;;
48911;SDS011;34722;52.108;5.044;2023-03-02T03:20:05;126.78;;;38.20;;
48911;SDS011;34722;52.108;5.044;2023-03-02T03:22:33;128.98;;;39.28;;
48911;SDS011;34722;52.108;5.044;2023-03-02T03:25:00;126.55;;;38.05;;
48911;SDS011;34722;52.108;5.044;2023-03-02T03:27:26;128.63;;;38.83;;
48911;SDS011;34722;52.108;5.044;2023-03-02T03:29:52;124.53;;;37.63;;
48911;SDS011;34722;52.108;5.044;2023-03-02T03:32:18;129.00;;;37.80;;
48911;SDS011;34722;52.108;5.044;2023-03-02T03:34:44;126.35;;;38.97;;
48911;SDS011;34722;52.108;5.044;2023-03-02T03:37:11;119.82;;;37.20;;
48911;SDS011;34722;52.108;5.044;2023-03-02T03:39:39;119.32;;;36.65;;
48911;SDS011;34722;52.108;5.044;2023-03-02T03:42:05;124.60;;;36.70;;
48911;SDS011;34722;52.108;5.044;2023-03-02T03:44:31;117.00;;;38.13;;
48911;SDS011;34722;52.108;5.044;2023-03-02T03:46:57;114.32;;;36.60;;
48911;SDS011;34722;52.108;5.044;2023-03-02T03:49:23;115.72;;;36.45;;
48911;SDS011;34722;52.108;5.044;2023-03-02T03:51:49;120.05;;;35.35;;
48911;SDS011;34722;52.108;5.044;2023-03-02T03:54:15;126.53;;;36.72;;
48911;SDS011;34722;52.108;5.044;2023-03-02T03:56:42;117.18;;;35.83;;
48911;SDS011;34722;52.108;5.044;2023-03-02T03:59:09;122.60;;;36.40;;
48911;SDS011;34722;52.108;5.044;2023-03-02T04:01:38;112.38;;;35.22;;
48911;SDS011;34722;52.108;5.044;2023-03-02T04:04:35;119.22;;;36.35;;
48911;SDS011;34722;52.108;5.044;2023-03-02T04:07:00;111.00;;;34.88;;
48911;SDS011;34722;52.108;5.044;2023-03-02T04:09:26;127.68;;;36.42;;
48911;SDS011;34722;52.108;5.044;2023-03-02T04:11:54;101.93;;;33.25;;
48911;SDS011;34722;52.108;5.044;2023-03-02T04:14:20;115.20;;;36.05;;
48911;SDS011;34722;52.108;5.044;2023-03-02T04:16:46;130.23;;;34.65;;
48911;SDS011;34722;52.108;5.044;2023-03-02T04:19:12;123.60;;;36.58;;
48911;SDS011;34722;52.108;5.044;2023-03-02T04:21:39;122.07;;;36.20;;
48911;SDS011;34722;52.108;5.044;2023-03-02T04:24:09;124.93;;;37.80;;
48911;SDS011;34722;52.108;5.044;2023-03-02T04:26:36;123.20;;;36.65;;
48911;SDS011;34722;52.108;5.044;2023-03-02T04:29:04;120.88;;;36.03;;
48911;SDS011;34722;52.108;5.044;2023-03-02T04:31:30;118.38;;;38.25;;
48911;SDS011;34722;52.108;5.044;2023-03-02T04:33:56;112.30;;;34.13;;
48911;SDS011;34722;52.108;5.044;2023-03-02T04:36:21;107.57;;;35.90;;
48911;SDS011;34722;52.108;5.044;2023-03-02T04:38:48;103.90;;;33.33;;
48911;SDS011;34722;52.108;5.044;2023-03-02T04:41:15;117.68;;;34.70;;
48911;SDS011;34722;52.108;5.044;2023-03-02T04:43:41;117.70;;;34.60;;
48911;SDS011;34722;52.108;5.044;2023-03-02T04:46:08;114.13;;;33.90;;
48911;SDS011;34722;52.108;5.044;2023-03-02T04:48:38;113.05;;;34.88;;
48911;SDS011;34722;52.108;5.044;2023-03-02T04:51:04;127.25;;;33.63;;
48911;SDS011;34722;52.108;5.044;2023-03-02T04:53:33;118.00;;;35.38;;
48911;SDS011;34722;52.108;5.044;2023-03-02T04:55:58;114.63;;;33.80;;
48911;SDS011;34722;52.108;5.044;2023-03-02T04:58:24;116.75;;;35.30;;
48911;SDS011;34722;52.108;5.044;2023-03-02T05:00:50;113.20;;;32.75;;
48911;SDS011;34722;52.108;5.044;2023-03-02T05:03:28;117.00;;;35.67;;
48911;SDS011;34722;52.108;5.044;2023-03-02T05:05:53;103.05;;;32.88;;
48911;SDS011;34722;52.108;5.044;2023-03-02T05:08:19;111.10;;;33.28;;
48911;SDS011;34722;52.108;5.044;2023-03-02T05:10:45;105.70;;;33.72;;
48911;SDS011;34722;52.108;5.044;2023-03-02T05:13:10;102.97;;;32.90;;
48911;SDS011;34722;52.108;5.044;2023-03-02T05:15:39;104.28;;;35.10;;
48911;SDS011;34722;52.108;5.044;2023-03-02T05:18:05;117.60;;;37.67;;
48911;SDS011;34722;52.108;5.044;2023-03-02T05:20:33;111.80;;;32.58;;
48911;SDS011;34722;52.108;5.044;2023-03-02T05:23:00;110.90;;;34.92;;
48911;SDS011;34722;52.108;5.044;2023-03-02T05:25:28;94.55;;;29.58;;
48911;SDS011;34722;52.108;5.044;2023-03-02T05:27:56;114.38;;;34.95;;
48911;SDS011;34722;52.108;5.044;2023-03-02T05:30:22;124.28;;;37.33;;
48911;SDS011;34722;52.108;5.044;2023-03-02T05:32:48;117.80;;;35.00;;
48911;SDS011;34722;52.108;5.044;2023-03-02T05:35:14;121.22;;;34.08;;
48911;SDS011;34722;52.108;5.044;2023-03-02T05:37:40;105.28;;;34.65;;
48911;SDS011;34722;52.108;5.044;2023-03-02T05:40:09;121.75;;;35.53;;
48911;SDS011;34722;52.108;5.044;2023-03-02T05:42:41;117.47;;;36.47;;
48911;SDS011;34722;52.108;5.044;2023-03-02T05:45:10;118.82;;;35.35;;
48911;SDS011;34722;52.108;5.044;2023-03-02T05:47:43;108.78;;;32.30;;
48911;SDS011;34722;52.108;5.044;2023-03-02T05:50:09;103.80;;;33.53;;
48911;SDS011;34722;52.108;5.044;2023-03-02T05:52:35;118.95;;;35.95;;
48911;SDS011;34722;52.108;5.044;2023-03-02T05:55:01;116.57;;;34.28;;
48911;SDS011;34722;52.108;5.044;2023-03-02T05:57:26;120.15;;;34.20;;
48911;SDS011;34722;52.108;5.044;2023-03-02T05:59:52;119.75;;;37.78;;
48911;SDS011;34722;52.108;5.044;2023-03-02T06:02:17;111.78;;;35.28;;
48911;SDS011;34722;52.108;5.044;2023-03-02T06:04:43;126.32;;;36.95;;
48911;SDS011;34722;52.108;5.044;2023-03-02T06:07:09;111.35;;;32.90;;
48911;SDS011;34722;52.108;5.044;2023-03-02T06:09:39;109.90;;;32.03;;
48911;SDS011;34722;52.108;5.044;2023-03-02T06:12:05;119.85;;;34.60;;
48911;SDS011;34722;52.108;5.044;2023-03-02T06:14:32;124.05;;;34.83;;
48911;SDS011;34722;52.108;5.044;2023-03-02T06:16:59;120.90;;;35.72;;
48911;SDS011;34722;52.108;5.044;2023-03-02T06:19:25;116.57;;;34.35;;
48911;SDS011;34722;52.108;5.044;2023-03-02T06:21:51;106.93;;;35.08;;
48911;SDS011;34722;52.108;5.044;2023-03-02T06:24:17;115.75;;;35.22;;
48911;SDS011;34722;52.108;5.044;2023-03-02T06:26:42;118.10;;;34.65;;
48911;SDS011;34722;52.108;5.044;2023-03-02T06:29:08;125.72;;;35.33;;
48911;SDS011;34722;52.108;5.044;2023-03-02T06:31:34;120.35;;;35.33;;
48911;SDS011;34722;52.108;5.044;2023-03-02T06:33:59;124.20;;;34.88;;
48911;SDS011;34722;52.108;5.044;2023-03-02T06:36:25;121.63;;;34.80;;
48911;SDS011;34722;52.108;5.044;2023-03-02T06:38:52;110.15;;;35.33;;
48911;SDS011;34722;52.108;5.044;2023-03-02T06:41:18;116.65;;;35.70;;
48911;SDS011;34722;52.108;5.044;2023-03-02T06:43:44;111.13;;;35.47;;
48911;SDS011;34722;52.108;5.044;2023-03-02T06:46:10;110.93;;;34.78;;
48911;SDS011;34722;52.108;5.044;2023-03-02T06:48:35;114.97;;;34.33;;
48911;SDS011;34722;52.108;5.044;2023-03-02T06:51:01;104.05;;;34.17;;
48911;SDS011;34722;52.108;5.044;2023-03-02T06:53:27;116.97;;;36.22;;
48911;SDS011;34722;52.108;5.044;2023-03-02T06:55:53;118.30;;;35.40;;
48911;SDS011;34722;52.108;5.044;2023-03-02T06:58:18;115.53;;;33.80;;
48911;SDS011;34722;52.108;5.044;2023-03-02T07:00:44;108.50;;;34.70;;
48911;SDS011;34722;52.108;5.044;2023-03-02T07:03:10;111.18;;;33.42;;
48911;SDS011;34722;52.108;5.044;2023-03-02T07:05:35;116.97;;;36.40;;
48911;SDS011;34722;52.108;5.044;2023-03-02T07:08:02;109.38;;;34.60;;
48911;SDS011;34722;52.108;5.044;2023-03-02T07:10:28;105.05;;;32.67;;
48911;SDS011;34722;52.108;5.044;2023-03-02T07:12:53;117.75;;;34.72;;
48911;SDS011;34722;52.108;5.044;2023-03-02T07:15:19;105.70;;;33.78;;
48911;SDS011;34722;52.108;5.044;2023-03-02T07:17:46;108.57;;;33.63;;
48911;SDS011;34722;52.108;5.044;2023-03-02T07:20:12;101.32;;;32.58;;
48911;SDS011;34722;52.108;5.044;2023-03-02T07:22:40;106.60;;;33.50;;
48911;SDS011;34722;52.108;5.044;2023-03-02T07:25:07;101.00;;;33.03;;
48911;SDS011;34722;52.108;5.044;2023-03-02T07:27:33;102.13;;;32.28;;
48911;SDS011;34722;52.108;5.044;2023-03-02T07:29:59;84.43;;;30.15;;
48911;SDS011;34722;52.108;5.044;2023-03-02T07:32:25;75.25;;;29.35;;
48911;SDS011;34722;52.108;5.044;2023-03-02T07:34:50;69.75;;;27.13;;
48911;SDS011;34722;52.108;5.044;2023-03-02T07:37:16;63.75;;;26.70;;
48911;SDS011;34722;52.108;5.044;2023-03-02T07:39:42;61.92;;;25.25;;
48911;SDS011;34722;52.108;5.044;2023-03-02T07:42:07;57.25;;;24.63;;
48911;SDS011;34722;52.108;5.044;2023-03-02T07:44:52;55.67;;;23.52;;
48911;SDS011;34722;52.108;5.044;2023-03-02T07:47:18;55.60;;;23.05;;
48911;SDS011;34722;52.108;5.044;2023-03-02T07:49:44;46.58;;;21.55;;
48911;SDS011;34722;52.108;5.044;2023-03-02T07:52:09;49.75;;;21.95;;
48911;SDS011;34722;52.108;5.044;2023-03-02T07:54:35;48.53;;;22.73;;
48911;SDS011;34722;52.108;5.044;2023-03-02T07:57:01;44.97;;;22.10;;
48911;SDS011;34722;52.108;5.044;2023-03-02T07:59:27;51.88;;;22.08;;
48911;SDS011;34722;52.108;5.044;2023-03-02T08:01:53;48.17;;;23.10;;
48911;SDS011;34722;52.108;5.044;2023-03-02T08:04:19;44.17;;;21.27;;
48911;SDS011;34722;52.108;5.044;2023-03-02T08:06:45;41.05;;;21.27;;
48911;SDS011;34722;52.108;5.044;2023-03-02T08:09:10;41.08;;;20.80;;
48911;SDS011;34722;52.108;5.044;2023-03-02T08:11:36;40.50;;;20.35;;
48911;SDS011;34722;52.108;5.044;2023-03-02T08:14:02;42.30;;;21.77;;
48911;SDS011;34722;52.108;5.044;2023-03-02T08:16:28;37.60;;;20.88;;
48911;SDS011;34722;52.108;5.044;2023-03-02T08:18:54;41.65;;;22.42;;
48911;SDS011;34722;52.108;5.044;2023-03-02T08:21:21;41.95;;;22.50;;
48911;SDS011;34722;52.108;5.044;2023-03-02T08:23:48;37.55;;;20.92;;
48911;SDS011;34722;52.108;5.044;2023-03-02T08:26:15;36.17;;;20.70;;
48911;SDS011;34722;52.108;5.044;2023-03-02T08:28:42;35.00;;;20.00;;
48911;SDS011;34722;52.108;5.044;2023-03-02T08:31:07;34.38;;;20.67;;
48911;SDS011;34722;52.108;5.044;2023-03-02T08:33:34;39.60;;;20.02;;
48911;SDS011;34722;52.108;5.044;2023-03-02T08:36:01;35.03;;;20.45;;
48911;SDS011;34722;52.108;5.044;2023-03-02T08:38:29;36.38;;;19.50;;
48911;SDS011;34722;52.108;5.044;2023-03-02T08:40:55;35.90;;;20.67;;
48911;SDS011;34722;52.108;5.044;2023-03-02T08:43:22;34.67;;;20.90;;
48911;SDS011;34722;52.108;5.044;2023-03-02T08:45:49;35.40;;;19.65;;
48911;SDS011;34722;52.108;5.044;2023-03-02T08:48:19;39.75;;;20.83;;
48911;SDS011;34722;52.108;5.044;2023-03-02T08:50:56;36.08;;;19.48;;
48911;SDS011;34722;52.108;5.044;2023-03-02T08:53:24;37.65;;;21.48;;
48911;SDS011;34722;52.108;5.044;2023-03-02T08:55:50;35.40;;;19.27;;
48911;SDS011;34722;52.108;5.044;2023-03-02T08:58:16;35.03;;;20.25;;
48911;SDS011;34722;52.108;5.044;2023-03-02T09:00:42;33.28;;;19.98;;
48911;SDS011;34722;52.108;5.044;2023-03-02T09:03:08;31.45;;;19.73;;
48911;SDS011;34722;52.108;5.044;2023-03-02T09:05:34;33.33;;;18.40;;
48911;SDS011;34722;52.108;5.044;2023-03-02T09:08:00;28.15;;;18.55;;
48911;SDS011;34722;52.108;5.044;2023-03-02T09:10:26;31.02;;;19.23;;
48911;SDS011;34722;52.108;5.044;2023-03-02T09:12:52;29.70;;;17.88;;
48911;SDS011;34722;52.108;5.044;2023-03-02T09:15:17;31.45;;;20.08;;
48911;SDS011;34722;52.108;5.044;2023-03-02T09:17:48;30.40;;;19.52;;
48911;SDS011;34722;52.108;5.044;2023-03-02T09:20:14;32.00;;;18.90;;
48911;SDS011;34722;52.108;5.044;2023-03-02T09:22:40;30.50;;;17.92;;
48911;SDS011;34722;52.108;5.044;2023-03-02T09:25:13;34.17;;;19.85;;
48911;SDS011;34722;52.108;5.044;2023-03-02T09:27:39;31.52;;;18.80;;
48911;SDS011;34722;52.108;5.044;2023-03-02T09:30:05;52.05;;;19.77;;
48911;SDS011;34722;52.108;5.044;2023-03-02T09:32:32;28.95;;;18.70;;
48911;SDS011;34722;52.108;5.044;2023-03-02T09:34:58;34.65;;;19.95;;
48911;SDS011;34722;52.108;5.044;2023-03-02T09:40:24;32.08;;;18.98;;
48911;SDS011;34722;52.108;5.044;2023-03-02T09:45:50;30.27;;;19.70;;
48911;SDS011;34722;52.108;5.044;2023-03-02T09:49:09;32.15;;;19.02;;
48911;SDS011;34722;52.108;5.044;2023-03-02T09:54:01;30.33;;;17.88;;
48911;SDS011;34722;52.108;5.044;2023-03-02T09:56:47;30.73;;;18.33;;
48911;SDS011;34722;52.108;5.044;2023-03-02T10:01:50;30.77;;;18.70;;
48911;SDS011;34722;52.108;5.044;2023-03-02T10:04:21;27.70;;;17.88;;
48911;SDS011;34722;52.108;5.044;2023-03-02T10:07:11;28.75;;;18.50;;
48911;SDS011;34722;52.108;5.044;2023-03-02T10:09:38;32.55;;;18.17;;
48911;SDS011;34722;52.108;5.044;2023-03-02T10:20:29;29.20;;;19.60;;
48911;SDS011;34722;52.108;5.044;2023-03-02T10:23:11;31.95;;;19.30;;
48911;SDS011;34722;52.108;5.044;2023-03-02T10:28:40;29.00;;;18.42;;
48911;SDS011;34722;52.108;5.044;2023-03-02T10:31:10;29.98;;;19.13;;
48911;SDS011;34722;52.108;5.044;2023-03-02T10:33:39;28.52;;;18.17;;
48911;SDS011;34722;52.108;5.044;2023-03-02T10:36:12;27.10;;;17.83;;
48911;SDS011;34722;52.108;5.044;2023-03-02T10:38:46;29.25;;;19.10;;
48911;SDS011;34722;52.108;5.044;2023-03-02T10:41:14;30.45;;;18.30;;
48911;SDS011;34722;52.108;5.044;2023-03-02T10:43:46;30.90;;;19.30;;
48911;SDS011;34722;52.108;5.044;2023-03-02T10:46:15;30.17;;;18.98;;
48911;SDS011;34722;52.108;5.044;2023-03-02T10:48:59;29.25;;;18.25;;
48911;SDS011;34722;52.108;5.044;2023-03-02T10:51:32;30.67;;;19.13;;
48911;SDS011;34722;52.108;5.044;2023-03-02T10:56:29;35.42;;;18.77;;
48911;SDS011;34722;52.108;5.044;2023-03-02T10:58:55;31.05;;;19.40;;
48911;SDS011;34722;52.108;5.044;2023-03-02T11:01:27;30.27;;;18.02;;
48911;SDS011;34722;52.108;5.044;2023-03-02T11:03:58;31.55;;;19.70;;
48911;SDS011;34722;52.108;5.044;2023-03-02T11:06:25;31.02;;;17.52;;
48911;SDS011;34722;52.108;5.044;2023-03-02T11:11:28;31.83;;;18.63;;
48911;SDS011;34722;52.108;5.044;2023-03-02T11:13:54;31.20;;;19.20;;
48911;SDS011;34722;52.108;5.044;2023-03-02T11:16:31;31.23;;;18.27;;
48911;SDS011;34722;52.108;5.044;2023-03-02T11:18:58;32.38;;;19.35;;
48911;SDS011;34722;52.108;5.044;2023-03-02T11:24:05;29.98;;;18.73;;
48911;SDS011;34722;52.108;5.044;2023-03-02T11:26:41;31.80;;;19.27;;
48911;SDS011;34722;52.108;5.044;2023-03-02T11:29:31;32.65;;;20.05;;
48911;SDS011;34722;52.108;5.044;2023-03-02T11:42:50;31.40;;;18.83;;
48911;SDS011;34722;52.108;5.044;2023-03-02T11:45:21;33.45;;;21.02;;
48911;SDS011;34722;52.108;5.044;2023-03-02T11:50:24;33.10;;;19.13;;
48911;SDS011;34722;52.108;5.044;2023-03-02T11:52:56;33.95;;;19.00;;
48911;SDS011;34722;52.108;5.044;2023-03-02T11:57:56;30.10;;;18.30;;
48911;SDS011;34722;52.108;5.044;2023-03-02T12:00:35;35.35;;;19.58;;
48911;SDS011;34722;52.108;5.044;2023-03-02T12:05:32;32.33;;;18.52;;
48911;SDS011;34722;52.108;5.044;2023-03-02T12:08:01;28.80;;;17.95;;
48911;SDS011;34722;52.108;5.044;2023-03-02T12:10:34;31.02;;;18.10;;
48911;SDS011;34722;52.108;5.044;2023-03-02T12:13:19;31.75;;;17.15;;
48911;SDS011;34722;52.108;5.044;2023-03-02T12:15:50;31.75;;;17.95;;
48911;SDS011;34722;52.108;5.044;2023-03-02T12:34:36;32.63;;;19.40;;
48911;SDS011;34722;52.108;5.044;2023-03-02T12:37:15;29.77;;;16.80;;
48911;SDS011;34722;52.108;5.044;2023-03-02T12:45:23;30.20;;;17.23;;
48911;SDS011;34722;52.108;5.044;2023-03-02T12:48:00;29.50;;;16.42;;
48911;SDS011;34722;52.108;5.044;2023-03-02T12:50:31;31.23;;;17.08;;
48911;SDS011;34722;52.108;5.044;2023-03-02T12:53:02;30.00;;;16.83;;
48911;SDS011;34722;52.108;5.044;2023-03-02T12:55:31;32.47;;;17.67;;
48911;SDS011;34722;52.108;5.044;2023-03-02T12:57:58;37.58;;;18.75;;
48911;SDS011;34722;52.108;5.044;2023-03-02T13:00:29;32.22;;;16.30;;
48911;SDS011;34722;52.108;5.044;2023-03-02T13:02:59;32.25;;;16.98;;
48911;SDS011;34722;52.108;5.044;2023-03-02T13:05:31;27.92;;;15.75;;
48911;SDS011;34722;52.108;5.044;2023-03-02T13:08:16;35.58;;;17.27;;
48911;SDS011;34722;52.108;5.044;2023-03-02T13:13:16;38.13;;;17.17;;
48911;SDS011;34722;52.108;5.044;2023-03-02T13:15:46;32.83;;;16.02;;
48911;SDS011;34722;52.108;5.044;2023-03-02T13:18:23;32.83;;;16.10;;
48911;SDS011;34722;52.108;5.044;2023-03-02T13:20:51;31.63;;;14.95;;
48911;SDS011;34722;52.108;5.044;2023-03-02T13:23:18;35.42;;;16.88;;
48911;SDS011;34722;52.108;5.044;2023-03-02T13:25:51;35.95;;;15.77;;
48911;SDS011;34722;52.108;5.044;2023-03-02T13:28:38;35.90;;;15.85;;
48911;SDS011;34722;52.108;5.044;2023-03-02T13:31:20;34.30;;;16.50;;
48911;SDS011;34722;52.108;5.044;2023-03-02T13:33:49;41.10;;;15.48;;
48911;SDS011;34722;52.108;5.044;2023-03-02T13:36:17;37.53;;;16.20;;
48911;SDS011;34722;52.108;5.044;2023-03-02T13:38:49;35.25;;;14.77;;
48911;SDS011;34722;52.108;5.044;2023-03-02T13:41:23;32.97;;;14.68;;
48911;SDS011;34722;52.108;5.044;2023-03-02T13:43:50;26.45;;;14.23;;
48911;SDS011;34722;52.108;5.044;2023-03-02T13:48:51;29.60;;;14.38;;
48911;SDS011;34722;52.108;5.044;2023-03-02T13:51:25;28.27;;;14.88;;
48911;SDS011;34722;52.108;5.044;2023-03-02T13:53:58;29.95;;;15.07;;
48911;SDS011;34722;52.108;5.044;2023-03-02T13:56:27;29.67;;;14.77;;
48911;SDS011;34722;52.108;5.044;2023-03-02T13:59:11;26.10;;;13.65;;
48911;SDS011;34722;52.108;5.044;2023-03-02T14:01:38;34.05;;;14.90;;
48911;SDS011;34722;52.108;5.044;2023-03-02T14:04:05;31.08;;;14.13;;
48911;SDS011;34722;52.108;5.044;2023-03-02T14:06:34;29.45;;;14.20;;
48911;SDS011;34722;52.108;5.044;2023-03-02T14:08:59;30.13;;;14.30;;
48911;SDS011;34722;52.108;5.044;2023-03-02T14:11:25;33.28;;;14.98;;
48911;SDS011;34722;52.108;5.044;2023-03-02T14:13:54;34.78;;;17.23;;
48911;SDS011;34722;52.108;5.044;2023-03-02T14:16:20;40.17;;;19.73;;
48911;SDS011;34722;52.108;5.044;2023-03-02T14:18:47;36.05;;;17.25;;
48911;SDS011;34722;52.108;5.044;2023-03-02T14:21:20;40.58;;;19.13;;
48911;SDS011;34722;52.108;5.044;2023-03-02T14:23:47;37.38;;;18.63;;
48911;SDS011;34722;52.108;5.044;2023-03-02T14:31:57;40.85;;;20.35;;
48911;SDS011;34722;52.108;5.044;2023-03-02T14:34:32;40.63;;;19.63;;
48911;SDS011;34722;52.108;5.044;2023-03-02T14:37:01;42.95;;;20.60;;
48911;SDS011;34722;52.108;5.044;2023-03-02T14:42:03;41.60;;;18.88;;
48911;SDS011;34722;52.108;5.044;2023-03-02T14:44:30;32.40;;;15.88;;
48911;SDS011;34722;52.108;5.044;2023-03-02T14:47:02;45.22;;;19.27;;
48911;SDS011;34722;52.108;5.044;2023-03-02T14:49:28;39.35;;;18.27;;
48911;SDS011;34722;52.108;5.044;2023-03-02T14:54:26;33.58;;;15.13;;
48911;SDS011;34722;52.108;5.044;2023-03-02T14:57:20;30.95;;;14.32;;
48911;SDS011;34722;52.108;5.044;2023-03-02T14:59:50;23.98;;;12.15;;
48911;SDS011;34722;52.108;5.044;2023-03-02T15:02:17;28.77;;;14.05;;
48911;SDS011;34722;52.108;5.044;2023-03-02T15:04:44;28.83;;;13.70;;
48911;SDS011;34722;52.108;5.044;2023-03-02T15:07:11;29.95;;;12.90;;
48911;SDS011;34722;52.108;5.044;2023-03-02T15:09:40;26.30;;;13.57;;
48911;SDS011;34722;52.108;5.044;2023-03-02T15:12:07;28.52;;;13.23;;
48911;SDS011;34722;52.108;5.044;2023-03-02T15:14:33;26.90;;;13.55;;
48911;SDS011;34722;52.108;5.044;2023-03-02T15:16:59;26.08;;;13.40;;
48911;SDS011;34722;52.108;5.044;2023-03-02T15:19:25;28.60;;;13.43;;
48911;SDS011;34722;52.108;5.044;2023-03-02T15:21:50;31.10;;;15.10;;
48911;SDS011;34722;52.108;5.044;2023-03-02T15:24:16;26.98;;;13.32;;
48911;SDS011;34722;52.108;5.044;2023-03-02T15:26:46;30.55;;;14.75;;
48911;SDS011;34722;52.108;5.044;2023-03-02T15:29:12;29.25;;;15.32;;
48911;SDS011;34722;52.108;5.044;2023-03-02T15:31:37;28.65;;;14.25;;
48911;SDS011;34722;52.108;5.044;2023-03-02T15:34:04;24.80;;;14.25;;
48911;SDS011;34722;52.108;5.044;2023-03-02T15:36:30;27.40;;;15.18;;
48911;SDS011;34722;52.108;5.044;2023-03-02T15:38:56;32.17;;;14.73;;
48911;SDS011;34722;52.108;5.044;2023-03-02T15:41:26;31.08;;;15.45;;
48911;SDS011;34722;52.108;5.044;2023-03-02T15:43:52;27.52;;;13.60;;
48911;SDS011;34722;52.108;5.044;2023-03-02T15:46:21;28.27;;;14.95;;
48911;SDS011;34722;52.108;5.044;2023-03-02T15:48:48;29.55;;;16.45;;
48911;SDS011;34722;52.108;5.044;2023-03-02T15:51:16;37.10;;;17.05;;
48911;SDS011;34722;52.108;5.044;2023-03-02T15:53:41;40.90;;;19.08;;
48911;SDS011;34722;52.108;5.044;2023-03-02T15:56:08;34.33;;;17.45;;